Time;durP1;ratioP1;P1;durP2;ratioP2;P2;SDS_P1;SDS_P2;PMS_P1;PMS_P2;Temp;Humidity;BMP_temperature;BMP_pressure;BME280_temperature;BME280_humidity;BME280_pressure;Samples;Min_cycle;Max_cycle;Signal;HPM_P1;HPM_P2
2024/01/16 00:01:05;;;;;;;12.23;5.17;;;2.50;99.90;;;;;;5095738;28;20675;-81
2024/01/16 00:03:31;;;;;;;9.53;5.30;;;2.50;99.90;;;;;;5095993;28;20206;-82
2024/01/16 00:05:57;;;;;;;9.70;4.77;;;2.50;99.90;;;;;;5094468;28;20207;-82
2024/01/16 00:08:23;;;;;;;10.97;4.57;;;2.50;99.90;;;;;;5094839;28;20180;-81
2024/01/16 00:10:49;;;;;;;9.57;4.97;;;2.50;99.90;;;;;;5093702;28;20505;-81
2024/01/16 00:13:15;;;;;;;10.20;4.80;;;2.40;99.90;;;;;;5096286;28;20635;-81
2024/01/16 00:15:41;;;;;;;9.77;5.00;;;2.40;99.90;;;;;;5095606;28;20183;-82
2024/01/16 00:18:08;;;;;;;8.53;4.70;;;2.40;99.90;;;;;;5094764;28;20160;-80
2024/01/16 00:20:33;;;;;;;7.47;4.47;;;2.30;99.90;;;;;;5096144;28;20251;-82
2024/01/16 00:23:00;;;;;;;9.63;5.07;;;2.20;99.90;;;;;;5095712;28;20196;-81
2024/01/16 00:25:25;;;;;;;9.53;4.90;;;2.10;99.90;;;;;;5095113;28;20194;-82
2024/01/16 00:27:51;;;;;;;8.57;4.50;;;2.10;99.90;;;;;;5095318;28;20188;-81
2024/01/16 00:30:17;;;;;;;9.70;4.80;;;2.10;99.90;;;;;;5095144;28;20220;-81
2024/01/16 00:32:43;;;;;;;7.07;4.97;;;2.00;99.90;;;;;;5095219;28;20664;-80
2024/01/16 00:35:09;;;;;;;10.23;4.90;;;2.00;99.90;;;;;;5095729;28;20298;-81
2024/01/16 00:37:36;;;;;;;7.43;4.80;;;2.00;99.90;;;;;;5095067;28;20168;-81
2024/01/16 00:40:04;;;;;;;12.57;5.33;;;1.90;99.90;;;;;;5094204;28;20179;-82
2024/01/16 00:42:32;;;;;;;9.90;5.70;;;1.90;99.90;;;;;;5098086;28;20238;-82
2024/01/16 00:44:58;;;;;;;9.27;5.27;;;1.90;99.90;;;;;;5099223;28;20176;-81
2024/01/16 00:47:24;;;;;;;12.60;5.13;;;1.90;99.90;;;;;;5098077;28;20341;-81
2024/01/16 00:49:50;;;;;;;12.97;5.70;;;1.90;99.90;;;;;;5098973;28;20168;-80
2024/01/16 00:52:15;;;;;;;19.77;6.00;;;2.00;99.90;;;;;;5099112;28;20267;-81
2024/01/16 00:54:42;;;;;;;11.87;5.60;;;1.90;99.90;;;;;;5098501;28;20207;-81
2024/01/16 00:57:07;;;;;;;8.63;5.50;;;1.90;99.90;;;;;;5098724;28;20160;-81
2024/01/16 00:59:33;;;;;;;12.20;5.47;;;2.00;99.90;;;;;;5098285;28;20183;-80
2024/01/16 01:01:59;;;;;;;13.73;5.70;;;2.00;99.90;;;;;;5098703;28;20195;-81
2024/01/16 01:04:24;;;;;;;12.30;5.80;;;1.90;99.90;;;;;;5098837;28;20203;-81
2024/01/16 01:06:50;;;;;;;10.57;5.20;;;2.00;99.90;;;;;;5098914;28;20259;-81
2024/01/16 01:09:16;;;;;;;9.67;5.33;;;2.00;99.90;;;;;;5099050;28;20187;-81
2024/01/16 01:11:42;;;;;;;9.17;5.00;;;2.00;99.90;;;;;;5080697;28;20200;-81
2024/01/16 01:14:08;;;;;;;9.97;4.93;;;2.00;99.90;;;;;;5097897;28;20215;-81
2024/01/16 01:16:33;;;;;;;13.37;5.00;;;2.00;99.90;;;;;;5099424;28;20175;-81
2024/01/16 01:18:59;;;;;;;7.27;5.20;;;1.80;99.90;;;;;;5097470;28;20262;-82
2024/01/16 01:21:25;;;;;;;10.90;5.53;;;1.70;99.90;;;;;;5097050;28;20217;-80
2024/01/16 01:23:50;;;;;;;8.73;5.33;;;1.70;99.90;;;;;;5096604;28;20611;-81
2024/01/16 01:26:18;;;;;;;15.27;6.00;;;1.70;99.90;;;;;;5098759;28;20188;-81
2024/01/16 01:28:44;;;;;;;10.90;6.00;;;1.70;99.90;;;;;;5098562;28;20258;-82
2024/01/16 01:31:10;;;;;;;12.10;6.10;;;1.70;99.90;;;;;;5097891;28;20203;-81
2024/01/16 01:33:36;;;;;;;10.90;6.30;;;1.70;99.90;;;;;;5099367;28;20191;-80
2024/01/16 01:36:02;;;;;;;15.43;7.13;;;1.60;99.90;;;;;;5099305;28;20172;-82
2024/01/16 01:38:28;;;;;;;14.13;6.50;;;1.60;99.90;;;;;;5098590;28;20222;-82
2024/01/16 01:40:53;;;;;;;13.50;6.27;;;1.50;99.90;;;;;;5100066;28;20168;-81
2024/01/16 01:43:24;;;;;;;12.40;6.87;;;1.40;99.90;;;;;;5104923;28;20172;-82
2024/01/16 01:46:19;;;;;;;13.23;6.60;;;1.40;99.90;;;;;;5099874;28;20186;-82
2024/01/16 01:48:47;;;;;;;16.17;6.87;;;1.40;99.90;;;;;;5089939;28;20646;-81
2024/01/16 01:51:14;;;;;;;13.97;7.20;;;1.40;99.90;;;;;;5100057;28;20176;-80
2024/01/16 01:53:42;;;;;;;15.03;6.73;;;1.40;99.90;;;;;;5099044;28;20196;-82
2024/01/16 01:56:15;;;;;;;8.70;6.20;;;1.30;99.90;;;;;;5100049;28;20171;-81
2024/01/16 01:58:43;;;;;;;10.73;6.37;;;1.40;99.90;;;;;;5098947;28;20172;-81
2024/01/16 02:01:10;;;;;;;13.57;6.60;;;1.30;99.90;;;;;;5099418;28;20278;-82
2024/01/16 02:03:41;;;;;;;13.50;6.37;;;1.30;99.90;;;;;;5097966;28;20218;-81
2024/01/16 02:06:07;;;;;;;15.27;6.73;;;1.20;99.90;;;;;;5097799;28;20171;-82
2024/01/16 02:08:33;;;;;;;18.13;7.47;;;1.20;99.90;;;;;;5097593;28;20168;-82
2024/01/16 02:10:59;;;;;;;15.53;6.67;;;1.10;99.90;;;;;;5099369;28;20171;-81
2024/01/16 02:13:24;;;;;;;12.37;6.57;;;1.20;99.90;;;;;;5098364;28;20725;-83
2024/01/16 02:15:50;;;;;;;15.13;6.50;;;1.10;99.90;;;;;;5097930;28;20180;-81
2024/01/16 02:18:17;;;;;;;12.77;6.00;;;1.10;99.90;;;;;;5097392;28;20168;-81
2024/01/16 02:20:43;;;;;;;11.77;5.77;;;1.10;99.90;;;;;;5096629;28;20273;-81
2024/01/16 02:23:11;;;;;;;10.10;6.10;;;1.10;99.90;;;;;;5096933;28;20172;-83
2024/01/16 02:25:36;;;;;;;13.13;6.10;;;1.00;99.90;;;;;;5097989;28;20210;-83
2024/01/16 02:28:03;;;;;;;10.23;5.70;;;1.00;99.90;;;;;;5098142;28;20250;-83
2024/01/16 02:30:28;;;;;;;8.33;5.60;;;1.00;99.90;;;;;;5097552;28;20223;-83
2024/01/16 02:32:54;;;;;;;16.17;6.07;;;1.00;99.90;;;;;;5096995;28;20184;-82
2024/01/16 02:35:19;;;;;;;9.07;5.43;;;0.90;99.90;;;;;;5094767;28;20222;-82
2024/01/16 02:37:45;;;;;;;14.23;6.20;;;0.90;99.90;;;;;;5095483;28;20202;-80
2024/01/16 02:40:11;;;;;;;13.27;6.10;;;0.90;99.90;;;;;;5095375;28;20696;-81
2024/01/16 02:42:37;;;;;;;13.30;5.43;;;0.90;99.90;;;;;;5095141;28;20643;-80
2024/01/16 02:45:04;;;;;;;9.47;5.57;;;0.80;99.90;;;;;;5095173;28;20168;-80
2024/01/16 02:47:30;;;;;;;13.50;6.20;;;0.80;99.90;;;;;;5095180;28;20164;-80
2024/01/16 02:49:55;;;;;;;10.57;6.00;;;0.80;99.90;;;;;;5095042;28;20171;-80
2024/01/16 02:52:21;;;;;;;13.13;6.10;;;0.80;99.90;;;;;;5095007;28;20209;-81
2024/01/16 02:54:47;;;;;;;12.70;5.93;;;0.80;99.90;;;;;;5093692;28;20959;-81
2024/01/16 02:57:12;;;;;;;15.13;6.17;;;0.80;99.90;;;;;;5093606;28;20193;-81
2024/01/16 02:59:38;;;;;;;12.77;6.13;;;0.80;99.90;;;;;;5094721;28;20627;-80
2024/01/16 03:02:03;;;;;;;13.93;6.33;;;0.80;99.90;;;;;;5095041;28;20552;-80
2024/01/16 03:04:30;;;;;;;12.73;5.90;;;0.80;99.90;;;;;;5093778;28;20176;-81
2024/01/16 03:06:55;;;;;;;9.20;5.50;;;0.80;99.90;;;;;;5094630;28;20555;-81
2024/01/16 03:09:21;;;;;;;12.80;5.53;;;0.70;99.90;;;;;;5094792;28;20164;-80
2024/01/16 03:11:46;;;;;;;11.00;5.83;;;0.80;99.90;;;;;;5094851;28;20221;-80
2024/01/16 03:14:13;;;;;;;15.00;5.77;;;0.80;99.90;;;;;;5099722;28;20297;-79
2024/01/16 03:16:39;;;;;;;15.60;6.50;;;0.80;99.90;;;;;;5094752;28;20167;-80
2024/01/16 03:19:05;;;;;;;15.83;6.07;;;0.80;99.90;;;;;;5094548;28;20168;-80
2024/01/16 03:21:30;;;;;;;8.43;5.50;;;0.80;99.90;;;;;;5094442;28;20164;-80
2024/01/16 03:23:56;;;;;;;14.57;6.47;;;0.80;99.90;;;;;;5094071;28;20173;-80
2024/01/16 03:26:22;;;;;;;11.07;5.87;;;0.80;99.90;;;;;;5095193;28;20164;-80
2024/01/16 03:28:47;;;;;;;16.33;6.20;;;0.80;99.90;;;;;;5095292;28;20203;-81
2024/01/16 03:31:18;;;;;;;13.07;5.97;;;0.80;99.90;;;;;;5096078;28;20179;-81
2024/01/16 03:33:43;;;;;;;10.87;6.27;;;0.80;99.90;;;;;;5096075;28;20213;-80
2024/01/16 03:36:10;;;;;;;10.60;6.20;;;0.80;99.90;;;;;;5094489;28;20263;-81
2024/01/16 03:38:39;;;;;;;11.57;6.07;;;0.70;99.90;;;;;;5095100;28;20608;-80
2024/01/16 03:41:06;;;;;;;10.63;5.70;;;0.70;99.90;;;;;;5094826;28;20193;-79
2024/01/16 03:43:35;;;;;;;8.07;5.63;;;0.80;99.90;;;;;;5095240;28;20163;-78
2024/01/16 03:46:01;;;;;;;10.00;5.67;;;0.80;99.90;;;;;;5095202;28;20244;-80
2024/01/16 03:48:26;;;;;;;10.63;5.50;;;0.80;99.90;;;;;;5095945;28;20581;-81
2024/01/16 03:50:54;;;;;;;13.93;5.27;;;0.80;99.90;;;;;;5096834;28;20183;-81
2024/01/16 03:53:20;;;;;;;9.80;5.17;;;0.80;99.90;;;;;;5095639;28;20164;-80
2024/01/16 03:55:46;;;;;;;8.57;4.83;;;0.80;99.90;;;;;;5095042;28;20354;-79
2024/01/16 03:58:11;;;;;;;9.03;4.97;;;0.80;99.90;;;;;;5095102;28;20179;-78
2024/01/16 04:00:37;;;;;;;12.27;5.50;;;0.80;99.90;;;;;;5095308;28;20210;-81
2024/01/16 04:03:03;;;;;;;9.23;5.17;;;0.80;99.90;;;;;;5093918;28;20190;-80
2024/01/16 04:05:28;;;;;;;7.73;5.47;;;0.70;99.90;;;;;;5095384;28;20677;-80
2024/01/16 04:07:54;;;;;;;14.73;6.27;;;0.70;99.90;;;;;;5097123;28;20171;-80
2024/01/16 04:10:20;;;;;;;11.73;5.53;;;0.70;99.90;;;;;;5098346;28;20249;-81
2024/01/16 04:12:45;;;;;;;12.67;6.03;;;0.70;99.90;;;;;;5100178;28;20196;-81
2024/01/16 04:15:11;;;;;;;9.93;5.70;;;0.70;99.90;;;;;;5098402;28;20212;-81
2024/01/16 04:17:37;;;;;;;14.40;5.70;;;0.70;99.90;;;;;;5098573;28;20225;-80
2024/01/16 04:20:03;;;;;;;14.07;5.73;;;0.70;99.90;;;;;;5100366;28;20168;-81
2024/01/16 04:22:28;;;;;;;12.13;6.33;;;0.70;99.90;;;;;;5096281;28;20171;-80
2024/01/16 04:24:54;;;;;;;16.20;6.23;;;0.70;99.90;;;;;;5096002;28;20183;-79
2024/01/16 04:27:20;;;;;;;13.10;6.07;;;0.70;99.90;;;;;;5096301;28;20171;-80
2024/01/16 04:29:45;;;;;;;15.07;6.83;;;0.60;99.90;;;;;;5095201;28;20220;-79
2024/01/16 04:32:11;;;;;;;12.97;6.27;;;0.60;99.90;;;;;;5095540;28;20174;-80
2024/01/16 04:34:36;;;;;;;12.30;6.60;;;0.50;99.90;;;;;;5079823;28;20211;-80
2024/01/16 04:37:03;;;;;;;10.03;6.70;;;0.50;99.90;;;;;;5099982;28;20175;-80
2024/01/16 04:39:28;;;;;;;11.30;6.93;;;0.40;99.90;;;;;;5101700;28;20169;-80
2024/01/16 04:41:54;;;;;;;13.67;6.90;;;0.40;99.90;;;;;;5101322;28;20164;-80
2024/01/16 04:44:19;;;;;;;12.87;6.47;;;0.40;99.90;;;;;;5102054;28;20171;-82
2024/01/16 04:46:45;;;;;;;15.90;6.90;;;0.30;99.90;;;;;;5101271;28;20168;-82
2024/01/16 04:49:11;;;;;;;12.50;7.00;;;0.30;99.90;;;;;;5105988;28;20185;-83
2024/01/16 04:51:36;;;;;;;11.33;6.50;;;0.30;99.90;;;;;;5104313;28;20187;-80
2024/01/16 04:54:02;;;;;;;10.13;6.70;;;0.30;99.90;;;;;;5104442;28;20202;-80
2024/01/16 04:56:28;;;;;;;10.80;6.77;;;0.20;99.90;;;;;;5106034;28;20175;-80
2024/01/16 04:58:53;;;;;;;12.80;6.27;;;0.20;99.90;;;;;;5105242;28;20592;-83
2024/01/16 05:01:19;;;;;;;10.97;6.03;;;0.20;99.90;;;;;;5107220;28;20196;-81
2024/01/16 05:03:45;;;;;;;13.53;6.73;;;0.10;99.90;;;;;;5108337;28;20172;-81
2024/01/16 05:06:16;;;;;;;11.70;6.17;;;0.10;99.90;;;;;;5108973;28;20197;-81
2024/01/16 05:08:42;;;;;;;11.10;5.77;;;0.10;99.90;;;;;;5108043;28;20172;-81
2024/01/16 05:11:08;;;;;;;7.53;5.50;;;0.10;99.90;;;;;;5105697;28;20258;-82
2024/01/16 05:13:34;;;;;;;9.73;5.87;;;0.10;99.90;;;;;;5106185;28;20190;-83
2024/01/16 05:16:00;;;;;;;12.90;6.53;;;0.10;99.90;;;;;;5106943;28;20285;-82
2024/01/16 05:18:25;;;;;;;19.53;6.17;;;0.10;99.90;;;;;;5108008;28;20170;-82
2024/01/16 05:20:51;;;;;;;13.37;6.63;;;0.10;99.90;;;;;;5108678;28;20179;-82
2024/01/16 05:23:17;;;;;;;12.00;6.63;;;0.10;99.90;;;;;;5109554;28;20168;-81
2024/01/16 05:25:43;;;;;;;12.97;6.17;;;0.10;99.90;;;;;;5109681;28;20620;-81
2024/01/16 05:28:09;;;;;;;12.80;6.60;;;0.10;99.90;;;;;;5110621;28;20203;-82
2024/01/16 05:30:34;;;;;;;9.67;6.13;;;0.00;99.90;;;;;;5112602;28;20223;-82
2024/01/16 05:33:00;;;;;;;12.47;6.80;;;0.10;99.90;;;;;;5112663;28;20267;-82
2024/01/16 05:35:29;;;;;;;12.63;6.37;;;0.10;99.90;;;;;;5112454;28;20227;-82
2024/01/16 05:37:56;;;;;;;14.10;6.10;;;0.00;99.90;;;;;;5113748;28;20206;-81
2024/01/16 05:40:24;;;;;;;13.30;6.60;;;0.10;99.90;;;;;;5112515;28;20182;-82
2024/01/16 05:42:50;;;;;;;13.37;6.60;;;0.10;99.90;;;;;;5111974;28;20183;-82
2024/01/16 05:45:16;;;;;;;16.50;6.90;;;0.10;99.90;;;;;;5106192;28;20262;-82
2024/01/16 05:47:41;;;;;;;12.90;6.43;;;0.10;99.90;;;;;;5106789;28;20179;-82
2024/01/16 05:50:08;;;;;;;12.73;6.60;;;0.00;99.90;;;;;;5110381;28;20175;-84
2024/01/16 05:52:34;;;;;;;15.73;6.60;;;0.00;99.90;;;;;;5110088;28;20246;-82
2024/01/16 05:55:00;;;;;;;11.10;7.10;;;-0.10;99.90;;;;;;5112106;28;20252;-80
2024/01/16 05:57:26;;;;;;;15.43;7.00;;;-0.10;99.90;;;;;;5111551;28;20176;-82
2024/01/16 05:59:51;;;;;;;10.83;6.77;;;-0.10;99.90;;;;;;5114283;28;20170;-81
2024/01/16 06:02:17;;;;;;;14.37;7.73;;;-0.20;99.90;;;;;;5114575;28;20518;-82
2024/01/16 06:04:43;;;;;;;12.57;6.63;;;-0.10;99.90;;;;;;5114896;28;20171;-83
2024/01/16 06:07:08;;;;;;;15.53;7.77;;;-0.10;99.90;;;;;;5112885;28;20182;-80
2024/01/16 06:09:39;;;;;;;17.73;6.67;;;-0.20;99.90;;;;;;5110774;28;20284;-81
2024/01/16 06:12:06;;;;;;;11.27;6.50;;;-0.10;99.90;;;;;;5110028;28;20155;-81
2024/01/16 06:14:32;;;;;;;10.33;6.33;;;-0.10;99.90;;;;;;5106906;28;20264;-81
2024/01/16 06:16:58;;;;;;;14.53;6.13;;;0.00;99.90;;;;;;5105942;28;20569;-81
2024/01/16 06:19:24;;;;;;;11.83;6.60;;;0.00;99.90;;;;;;5109407;28;20258;-79
2024/01/16 06:21:49;;;;;;;14.00;6.30;;;0.00;99.90;;;;;;5109243;28;20193;-81
2024/01/16 06:24:15;;;;;;;12.80;7.13;;;0.00;99.90;;;;;;5109306;28;20197;-83
2024/01/16 06:26:42;;;;;;;19.60;7.37;;;0.10;99.90;;;;;;5106056;28;20184;-81
2024/01/16 06:29:07;;;;;;;15.03;7.03;;;0.20;99.90;;;;;;5110719;28;20244;-81
2024/01/16 06:31:33;;;;;;;15.87;6.97;;;0.20;99.90;;;;;;5113425;28;20190;-83
2024/01/16 06:33:59;;;;;;;10.80;6.67;;;0.20;99.90;;;;;;5110936;28;20225;-84
2024/01/16 06:36:24;;;;;;;13.47;7.43;;;0.20;99.90;;;;;;5110946;28;20164;-81
2024/01/16 06:38:50;;;;;;;14.50;6.70;;;0.30;99.90;;;;;;5109051;28;20164;-83
2024/01/16 06:41:15;;;;;;;17.47;7.70;;;0.30;99.90;;;;;;5107468;28;20202;-82
2024/01/16 06:43:41;;;;;;;18.67;7.17;;;0.30;99.90;;;;;;5106912;28;20179;-80
2024/01/16 06:46:06;;;;;;;18.20;7.43;;;0.30;99.90;;;;;;5109482;28;20172;-81
2024/01/16 06:48:33;;;;;;;9.80;6.30;;;0.30;99.90;;;;;;5111550;28;20177;-82
2024/01/16 06:51:01;;;;;;;18.70;7.50;;;0.20;99.90;;;;;;5108330;28;20172;-81
2024/01/16 06:53:26;;;;;;;12.43;6.83;;;0.20;99.90;;;;;;5108999;28;20196;-81
2024/01/16 06:55:52;;;;;;;10.90;6.73;;;0.20;99.90;;;;;;5110010;28;20167;-81
2024/01/16 06:58:17;;;;;;;15.93;7.47;;;0.20;99.90;;;;;;5106436;28;20195;-81
2024/01/16 07:00:43;;;;;;;16.57;7.57;;;0.20;99.90;;;;;;5107239;28;20222;-80
2024/01/16 07:03:09;;;;;;;14.37;6.80;;;0.30;99.90;;;;;;5105591;28;20175;-81
2024/01/16 07:05:34;;;;;;;13.47;7.07;;;0.20;99.90;;;;;;5104066;28;20179;-81
2024/01/16 07:08:00;;;;;;;14.20;7.23;;;0.20;99.90;;;;;;5101195;28;20204;-80
2024/01/16 07:10:26;;;;;;;12.00;7.07;;;0.20;99.90;;;;;;5098513;28;20171;-82
2024/01/16 07:12:51;;;;;;;14.07;7.17;;;0.30;99.90;;;;;;5100968;28;20519;-81
2024/01/16 07:15:18;;;;;;;19.57;7.83;;;0.30;99.90;;;;;;5103006;28;20570;-81
2024/01/16 07:17:43;;;;;;;15.83;7.10;;;0.30;99.90;;;;;;5086531;28;20571;-82
2024/01/16 07:20:11;;;;;;;12.87;6.70;;;0.20;99.90;;;;;;5098115;28;20212;-81
2024/01/16 07:22:39;;;;;;;19.03;7.17;;;0.20;99.90;;;;;;5093327;28;20167;-81
2024/01/16 07:25:05;;;;;;;25.33;7.80;;;0.30;99.90;;;;;;5093745;28;20174;-80
2024/01/16 07:27:31;;;;;;;17.83;7.20;;;0.40;99.90;;;;;;5093526;28;20637;-80
2024/01/16 07:29:56;;;;;;;15.47;7.00;;;0.40;99.90;;;;;;5094027;28;20225;-80
2024/01/16 07:32:22;;;;;;;16.03;6.90;;;0.30;99.90;;;;;;5094951;28;20174;-80
2024/01/16 07:34:48;;;;;;;14.63;7.43;;;0.30;99.90;;;;;;5094729;28;20269;-79
2024/01/16 07:37:15;;;;;;;14.23;6.67;;;0.30;99.90;;;;;;5093866;28;20226;-79
2024/01/16 07:39:41;;;;;;;11.53;6.73;;;0.40;99.90;;;;;;5094077;28;20171;-81
2024/01/16 07:42:07;;;;;;;19.00;6.97;;;0.40;99.90;;;;;;5092051;28;20179;-82
2024/01/16 07:44:33;;;;;;;19.77;7.07;;;0.40;99.90;;;;;;5093825;28;20665;-80
2024/01/16 07:46:59;;;;;;;17.80;6.57;;;0.40;99.90;;;;;;5093862;28;20167;-81
2024/01/16 07:49:24;;;;;;;14.37;7.10;;;0.30;99.90;;;;;;5093062;28;20172;-81
2024/01/16 07:51:50;;;;;;;19.77;6.93;;;0.40;99.90;;;;;;5092725;28;20170;-81
2024/01/16 07:54:15;;;;;;;12.43;7.03;;;0.40;99.90;;;;;;5094190;28;20196;-80
2024/01/16 07:56:41;;;;;;;18.77;6.53;;;0.40;99.90;;;;;;5093635;28;20197;-80
2024/01/16 07:59:07;;;;;;;22.67;6.87;;;0.50;99.90;;;;;;5094686;28;20200;-79
2024/01/16 08:01:32;;;;;;;13.23;6.83;;;0.40;99.90;;;;;;5095379;28;20194;-80
2024/01/16 08:03:58;;;;;;;18.93;6.63;;;0.40;99.90;;;;;;5097456;28;20168;-81
2024/01/16 08:06:24;;;;;;;18.60;7.07;;;0.40;99.90;;;;;;5096853;28;20176;-82
2024/01/16 08:08:50;;;;;;;12.93;6.83;;;0.40;99.90;;;;;;5092823;28;20168;-80
2024/01/16 08:11:18;;;;;;;17.90;7.23;;;0.50;99.90;;;;;;5092464;28;20646;-80
2024/01/16 08:13:44;;;;;;;13.77;6.67;;;0.60;99.90;;;;;;5092415;28;20175;-81
2024/01/16 08:16:09;;;;;;;12.80;6.63;;;0.70;99.90;;;;;;5092385;28;20638;-81
2024/01/16 08:18:35;;;;;;;11.00;6.27;;;0.70;99.90;;;;;;5092609;28;20265;-80
2024/01/16 08:21:00;;;;;;;9.77;5.87;;;0.80;99.90;;;;;;5092167;28;20178;-82
2024/01/16 08:23:26;;;;;;;11.67;5.43;;;0.80;99.90;;;;;;5091956;28;20569;-81
2024/01/16 08:25:52;;;;;;;14.87;6.07;;;0.80;99.90;;;;;;5092698;28;20625;-85
2024/01/16 08:28:18;;;;;;;12.50;6.40;;;0.80;99.90;;;;;;5093771;28;20170;-82
2024/01/16 08:30:43;;;;;;;15.73;6.63;;;0.70;99.90;;;;;;5098867;28;20231;-81
2024/01/16 08:33:10;;;;;;;13.63;6.40;;;0.60;99.90;;;;;;5101191;28;20606;-80
2024/01/16 08:35:36;;;;;;;18.90;6.73;;;0.70;99.90;;;;;;5099598;28;20237;-82
2024/01/16 08:38:01;;;;;;;12.77;6.23;;;0.70;99.90;;;;;;5100393;28;20500;-80
2024/01/16 08:40:27;;;;;;;9.53;5.57;;;0.70;99.90;;;;;;5096178;28;20186;-81
2024/01/16 08:42:54;;;;;;;20.03;6.87;;;0.90;99.90;;;;;;5098327;28;20172;-81
2024/01/16 08:45:23;;;;;;;15.87;7.23;;;0.90;99.90;;;;;;5090990;28;20190;-78
2024/01/16 08:47:49;;;;;;;20.43;6.27;;;0.90;99.90;;;;;;5074264;28;20179;-80
2024/01/16 08:50:15;;;;;;;13.97;6.30;;;1.00;99.90;;;;;;5091411;28;20191;-79
2024/01/16 08:52:41;;;;;;;19.90;6.17;;;1.00;99.90;;;;;;5092145;28;20176;-80
2024/01/16 08:55:08;;;;;;;20.13;6.20;;;1.10;99.90;;;;;;5091913;28;20626;-80
2024/01/16 08:57:34;;;;;;;19.53;5.93;;;1.20;99.90;;;;;;5091787;28;20614;-80
2024/01/16 09:00:00;;;;;;;12.70;5.80;;;1.20;99.90;;;;;;5091871;28;20223;-82
2024/01/16 09:02:28;;;;;;;14.20;5.73;;;1.20;99.90;;;;;;5093458;28;20187;-81
2024/01/16 09:04:54;;;;;;;16.80;5.70;;;1.20;99.90;;;;;;5096698;28;20188;-79
2024/01/16 09:07:20;;;;;;;8.07;5.17;;;1.40;99.90;;;;;;5094209;28;20176;-80
2024/01/16 09:09:45;;;;;;;9.60;4.87;;;1.50;99.90;;;;;;5096527;28;20191;-80
2024/01/16 09:12:11;;;;;;;9.77;5.13;;;1.60;99.90;;;;;;5077641;28;20197;-79
2024/01/16 09:14:37;;;;;;;14.27;5.90;;;1.50;99.90;;;;;;5095274;28;20206;-80
2024/01/16 09:17:03;;;;;;;12.73;5.53;;;1.60;99.90;;;;;;5096717;28;20650;-79
2024/01/16 09:19:29;;;;;;;9.27;5.00;;;1.60;99.90;;;;;;5096153;28;20172;-78
2024/01/16 09:21:55;;;;;;;17.60;5.53;;;1.60;99.90;;;;;;5095874;28;20217;-80
2024/01/16 09:24:21;;;;;;;8.57;4.77;;;1.60;99.90;;;;;;5095626;28;20164;-80
2024/01/16 09:26:46;;;;;;;10.80;4.93;;;1.50;99.90;;;;;;5094733;28;20539;-79
2024/01/16 09:29:12;;;;;;;12.23;5.40;;;1.70;99.90;;;;;;5094399;28;20208;-79
2024/01/16 09:31:38;;;;;;;12.67;5.03;;;1.70;99.90;;;;;;5096323;28;20635;-79
2024/01/16 09:34:04;;;;;;;12.60;5.50;;;1.90;99.90;;;;;;5095457;28;20282;-79
2024/01/16 09:36:30;;;;;;;9.07;4.40;;;2.00;99.90;;;;;;5095699;28;20635;-78
2024/01/16 09:38:55;;;;;;;13.07;5.17;;;1.90;99.90;;;;;;5095462;28;20179;-81
2024/01/16 09:41:21;;;;;;;7.80;4.80;;;2.00;99.90;;;;;;5095116;28;20315;-78
2024/01/16 09:43:47;;;;;;;10.07;5.10;;;2.30;99.90;;;;;;5095717;28;20172;-77
2024/01/16 09:46:16;;;;;;;16.13;5.33;;;2.30;99.90;;;;;;5095363;28;20211;-78
2024/01/16 09:48:44;;;;;;;12.53;5.20;;;2.30;99.90;;;;;;5095108;28;20156;-78
2024/01/16 09:51:14;;;;;;;14.73;5.17;;;2.40;99.90;;;;;;5095150;28;20168;-78
2024/01/16 09:53:41;;;;;;;12.30;5.30;;;2.20;99.90;;;;;;5094119;28;20168;-78
2024/01/16 09:56:16;;;;;;;14.77;5.10;;;2.50;99.90;;;;;;5095147;28;20179;-77
2024/01/16 09:58:43;;;;;;;11.43;5.10;;;2.80;99.90;;;;;;5095378;28;20250;-77
2024/01/16 10:01:11;;;;;;;12.93;4.90;;;2.90;99.90;;;;;;5095476;28;20213;-77
2024/01/16 10:03:38;;;;;;;10.03;4.97;;;3.50;99.90;;;;;;5094151;28;20191;-78
2024/01/16 10:06:07;;;;;;;16.53;5.00;;;4.50;99.90;;;;;;5094404;28;20531;-78
2024/01/16 10:08:32;;;;;;;13.10;5.17;;;5.90;99.90;;;;;;5095165;28;20178;-78
2024/01/16 10:10:59;;;;;;;13.90;4.73;;;6.70;99.80;;;;;;5094961;28;20168;-79
2024/01/16 10:13:26;;;;;;;12.73;4.53;;;7.30;98.20;;;;;;5094558;28;20183;-78
2024/01/16 10:15:52;;;;;;;11.73;4.97;;;8.30;95.90;;;;;;5094595;28;20649;-76
2024/01/16 10:18:32;;;;;;;16.30;5.07;;;9.00;92.20;;;;;;5095014;28;20176;-78
2024/01/16 10:20:57;;;;;;;11.37;4.53;;;8.70;92.00;;;;;;5095172;28;20175;-77
2024/01/16 10:23:28;;;;;;;11.27;4.20;;;8.90;91.00;;;;;;5095407;28;20175;-77
2024/01/16 10:26:06;;;;;;;7.73;4.00;;;9.20;90.20;;;;;;5084655;28;20199;-78
2024/01/16 10:28:36;;;;;;;8.33;4.53;;;9.10;86.30;;;;;;5073614;28;20199;-77
2024/01/16 10:31:06;;;;;;;8.87;4.23;;;8.30;90.50;;;;;;5074493;28;20181;-76
2024/01/16 10:33:32;;;;;;;8.43;3.90;;;8.20;91.90;;;;;;5075795;28;20628;-76
2024/01/16 10:36:11;;;;;;;6.47;4.00;;;8.10;92.80;;;;;;5094099;28;20180;-77
2024/01/16 10:38:40;;;;;;;7.67;4.90;;;8.40;91.60;;;;;;5094765;28;20183;-78
2024/01/16 10:41:11;;;;;;;10.53;4.13;;;8.20;90.90;;;;;;5092799;28;20255;-79
2024/01/16 10:43:37;;;;;;;6.23;4.37;;;8.20;91.60;;;;;;5093967;28;20180;-79
2024/01/16 10:46:17;;;;;;;9.63;4.67;;;8.00;92.30;;;;;;5093930;28;20225;-77
2024/01/16 10:49:00;;;;;;;8.67;5.03;;;7.60;94.40;;;;;;5093874;28;20168;-77
2024/01/16 10:51:27;;;;;;;8.47;3.90;;;8.20;92.50;;;;;;5093581;28;20168;-79
2024/01/16 10:53:59;;;;;;;10.57;4.37;;;8.80;91.30;;;;;;5093887;28;20459;-79
2024/01/16 10:56:29;;;;;;;6.80;4.30;;;8.70;89.80;;;;;;5094268;28;20627;-80
2024/01/16 10:59:06;;;;;;;9.27;4.03;;;9.00;87.50;;;;;;5093907;28;20244;-79
2024/01/16 11:01:33;;;;;;;6.93;4.27;;;9.50;86.20;;;;;;5091481;28;20685;-79
2024/01/16 11:04:01;;;;;;;6.13;4.00;;;9.50;84.90;;;;;;5094688;28;20608;-79
2024/01/16 11:06:27;;;;;;;5.93;4.00;;;9.30;81.80;;;;;;5094443;28;20176;-78
2024/01/16 11:08:54;;;;;;;5.40;4.07;;;9.20;86.10;;;;;;5093778;28;20172;-79
2024/01/16 11:11:21;;;;;;;7.13;4.60;;;9.10;84.70;;;;;;5093879;28;20187;-77
2024/01/16 11:13:49;;;;;;;6.47;4.47;;;9.10;87.10;;;;;;5093101;28;20229;-77
2024/01/16 11:16:16;;;;;;;9.17;4.43;;;8.80;85.70;;;;;;5093375;28;20164;-78
2024/01/16 11:18:41;;;;;;;7.30;4.13;;;9.10;84.80;;;;;;5093273;28;20168;-80
2024/01/16 11:21:11;;;;;;;6.90;3.80;;;9.30;85.60;;;;;;5091879;28;20590;-78
2024/01/16 11:23:37;;;;;;;9.97;4.67;;;8.80;86.20;;;;;;5093982;28;20156;-79
2024/01/16 11:26:24;;;;;;;7.97;4.67;;;8.80;89.10;;;;;;5091123;28;20184;-78
2024/01/16 11:28:50;;;;;;;6.17;4.30;;;9.40;85.60;;;;;;5093304;28;20163;-79
2024/01/16 11:31:33;;;;;;;9.77;7.47;;;9.10;84.40;;;;;;5093706;28;20526;-78
2024/01/16 11:34:00;;;;;;;9.40;4.30;;;8.70;88.60;;;;;;5092766;28;20199;-79
2024/01/16 11:36:55;;;;;;;10.00;4.53;;;8.50;87.10;;;;;;5093734;28;20175;-80
2024/01/16 11:39:24;;;;;;;8.87;4.50;;;8.70;87.10;;;;;;5093769;28;20164;-79
2024/01/16 11:41:57;;;;;;;8.20;4.80;;;8.70;88.80;;;;;;5096612;28;20168;-79
2024/01/16 11:44:43;;;;;;;7.27;4.90;;;9.30;85.80;;;;;;5093305;28;20183;-79
2024/01/16 11:47:19;;;;;;;9.20;4.93;;;9.30;80.90;;;;;;5072196;28;20226;-79
2024/01/16 11:49:45;;;;;;;9.90;4.83;;;9.40;83.10;;;;;;5073075;28;20658;-79
2024/01/16 11:52:12;;;;;;;7.67;4.40;;;9.80;79.10;;;;;;5085658;28;20241;-79
2024/01/16 11:54:42;;;;;;;8.63;6.23;;;10.10;76.30;;;;;;5092906;28;20723;-78
2024/01/16 11:57:31;;;;;;;5.67;3.60;;;10.30;71.70;;;;;;5092796;28;20164;-78
2024/01/16 12:00:12;;;;;;;11.33;4.63;;;9.00;73.90;;;;;;5093463;28;20234;-79
2024/01/16 12:02:49;;;;;;;10.73;7.27;;;9.10;80.10;;;;;;5092179;28;20639;-78
2024/01/16 12:05:15;;;;;;;8.70;4.67;;;8.80;81.60;;;;;;5093130;28;20183;-77
2024/01/16 12:07:52;;;;;;;8.93;3.90;;;8.30;85.40;;;;;;5091549;28;20638;-77
2024/01/16 12:10:19;;;;;;;5.83;4.10;;;7.70;84.90;;;;;;5092328;28;20242;-77
2024/01/16 12:12:46;;;;;;;9.30;4.10;;;7.70;89.40;;;;;;5092759;28;20267;-76
2024/01/16 12:15:19;;;;;;;8.67;4.60;;;7.80;87.90;;;;;;5092537;28;20196;-77
2024/01/16 12:18:02;;;;;;;10.27;3.83;;;7.70;89.70;;;;;;5092105;28;20168;-77
2024/01/16 12:20:29;;;;;;;9.33;4.73;;;7.80;88.20;;;;;;5092780;28;20171;-77
2024/01/16 12:23:09;;;;;;;15.07;4.47;;;8.00;90.20;;;;;;5093198;28;20168;-77
2024/01/16 12:25:37;;;;;;;7.00;3.70;;;7.80;90.90;;;;;;5091426;28;20172;-78
2024/01/16 12:28:07;;;;;;;9.57;5.50;;;7.90;89.20;;;;;;5092610;28;20635;-77
2024/01/16 12:30:35;;;;;;;7.53;4.77;;;8.10;89.50;;;;;;5091338;28;20230;-79
2024/01/16 12:33:08;;;;;;;10.03;5.33;;;8.30;88.60;;;;;;5088077;28;20179;-78
2024/01/16 12:35:38;;;;;;;9.13;4.50;;;8.10;89.50;;;;;;5073831;28;20219;-78
2024/01/16 12:38:06;;;;;;;16.47;12.63;;;7.80;89.30;;;;;;5089173;28;20233;-78
2024/01/16 12:40:33;;;;;;;9.07;5.33;;;8.00;90.40;;;;;;5098007;28;20207;-77
2024/01/16 12:42:58;;;;;;;10.17;5.40;;;7.60;90.10;;;;;;5098163;28;20251;-77
2024/01/16 12:45:25;;;;;;;8.40;4.70;;;7.40;91.30;;;;;;5099281;28;20557;-76
2024/01/16 12:47:54;;;;;;;9.13;5.17;;;7.50;92.20;;;;;;5099109;28;20164;-76
2024/01/16 12:50:25;;;;;;;6.57;4.10;;;7.40;91.40;;;;;;5099209;28;20187;-78